Time;durP1;ratioP1;P1;durP2;ratioP2;P2;SDS_P1;SDS_P2;PMS_P1;PMS_P2;Temp;Humidity;BMP_temperature;BMP_pressure;BME280_temperature;BME280_humidity;BME280_pressure;Samples;Min_cycle;Max_cycle;Signal;HPM_P1;HPM_P2
2023/10/02 00:01:23;;;;;;;0.22;0.22;;;17.50;99.90;;;;;;5073018;28;20048;-74
2023/10/02 00:03:40;;;;;;;0.35;0.35;;;17.50;99.90;;;;;;5068258;28;20058;-75
2023/10/02 00:06:06;;;;;;;;;;;17.40;99.90;;;;;;5079788;28;20044;-75
2023/10/02 00:08:36;;;;;;;0.20;0.20;;;17.40;99.90;;;;;;5080548;28;19924;-75
2023/10/02 00:14:18;;;;;;;0.90;0.82;;;17.30;99.90;;;;;;5079137;28;20055;-75
2023/10/02 00:17:08;;;;;;;1.17;0.70;;;17.30;99.90;;;;;;5076810;28;20044;-75
2023/10/02 00:19:38;;;;;;;0.20;0.20;;;17.20;99.90;;;;;;5079691;28;20391;-74
2023/10/02 00:22:09;;;;;;;0.40;0.40;;;17.20;99.90;;;;;;5081653;28;20048;-75
2023/10/02 00:24:40;;;;;;;0.20;0.20;;;17.20;99.90;;;;;;5077200;28;20108;-74
2023/10/02 00:27:10;;;;;;;0.20;0.20;;;17.10;99.90;;;;;;5084253;28;20597;-75
2023/10/02 00:29:51;;;;;;;0.32;0.32;;;17.10;99.90;;;;;;5069995;28;20500;-75
2023/10/02 00:32:19;;;;;;;0.30;0.30;;;17.10;99.90;;;;;;5075819;28;20511;-75
2023/10/02 00:34:46;;;;;;;0.20;0.20;;;17.10;99.90;;;;;;5078964;28;20716;-75
2023/10/02 00:37:12;;;;;;;0.40;0.40;;;17.10;99.90;;;;;;5077958;28;20101;-75
2023/10/02 00:39:38;;;;;;;;;;;17.00;99.90;;;;;;5086127;28;20445;-74
2023/10/02 00:42:15;;;;;;;0.30;0.30;;;17.10;99.90;;;;;;5080552;28;19928;-75
2023/10/02 00:44:52;;;;;;;0.60;0.60;;;17.10;99.90;;;;;;5076026;28;20491;-75
2023/10/02 00:50:24;;;;;;;0.20;0.20;;;17.10;99.90;;;;;;5086726;28;20295;-75
2023/10/02 00:52:55;;;;;;;0.50;0.50;;;17.10;99.90;;;;;;5078026;28;20040;-75
2023/10/02 00:55:23;;;;;;;0.50;0.50;;;17.10;99.90;;;;;;5080693;28;20052;-75
2023/10/02 00:57:56;;;;;;;0.30;0.30;;;17.10;99.90;;;;;;5077589;28;20088;-74
2023/10/02 01:00:36;;;;;;;0.90;0.90;;;17.10;99.90;;;;;;5080372;28;20132;-75
2023/10/02 01:03:09;;;;;;;0.30;0.30;;;17.10;99.90;;;;;;5081326;28;20109;-75
2023/10/02 01:05:58;;;;;;;0.22;0.22;;;17.10;99.90;;;;;;5069860;28;20114;-74
2023/10/02 01:08:25;;;;;;;0.30;0.30;;;17.00;99.90;;;;;;5079298;28;20459;-75
2023/10/02 01:10:56;;;;;;;0.85;0.50;;;17.00;99.90;;;;;;5080721;28;20044;-74
2023/10/02 01:13:35;;;;;;;0.28;0.28;;;16.90;99.90;;;;;;5081674;28;20469;-74
2023/10/02 01:16:08;;;;;;;0.20;0.20;;;16.80;99.90;;;;;;5078820;28;20132;-74
2023/10/02 01:18:35;;;;;;;0.40;0.40;;;16.70;99.90;;;;;;5079102;28;20049;-74
2023/10/02 01:21:09;;;;;;;0.90;0.90;;;16.60;99.90;;;;;;5080346;28;20064;-74
2023/10/02 01:24:07;;;;;;;0.30;0.30;;;16.60;99.90;;;;;;5078716;28;20046;-74
2023/10/02 01:26:37;;;;;;;0.28;0.28;;;16.60;99.90;;;;;;5081397;28;20547;-74
2023/10/02 01:29:06;;;;;;;0.40;0.40;;;16.50;99.90;;;;;;5074887;28;20039;-75
2023/10/02 01:31:32;;;;;;;0.57;0.57;;;16.50;99.90;;;;;;5076753;28;20057;-74
2023/10/02 01:34:02;;;;;;;0.75;0.75;;;16.50;99.90;;;;;;5077658;28;21328;-75
2023/10/02 01:36:32;;;;;;;0.30;0.30;;;16.60;99.90;;;;;;5077999;28;20044;-74
2023/10/02 01:39:14;;;;;;;0.40;0.40;;;16.60;99.90;;;;;;5079720;28;20118;-75
2023/10/02 01:41:41;;;;;;;0.40;0.40;;;16.60;99.90;;;;;;5080956;28;20048;-74
2023/10/02 01:44:10;;;;;;;0.20;0.20;;;16.50;99.90;;;;;;5078686;28;20866;-75
2023/10/02 01:46:38;;;;;;;0.30;0.30;;;16.50;99.90;;;;;;5071835;28;20502;-74
2023/10/02 01:49:24;;;;;;;1.10;0.98;;;16.50;99.90;;;;;;5079133;28;20455;-74
2023/10/02 01:51:50;;;;;;;0.30;0.30;;;16.50;99.90;;;;;;5080899;28;20055;-74
2023/10/02 01:54:16;;;;;;;0.45;0.45;;;16.50;99.90;;;;;;5078848;28;20547;-75
2023/10/02 01:56:45;;;;;;;0.57;0.47;;;16.60;99.90;;;;;;5080739;28;20119;-75
2023/10/02 01:59:19;;;;;;;3.30;0.73;;;16.60;99.90;;;;;;5081470;28;20044;-76
2023/10/02 02:01:57;;;;;;;0.20;0.20;;;16.60;99.90;;;;;;5081259;28;20052;-75
2023/10/02 02:04:27;;;;;;;0.50;0.45;;;16.70;99.90;;;;;;5083496;28;20653;-75
2023/10/02 02:06:55;;;;;;;1.65;1.55;;;16.70;99.90;;;;;;5084218;28;20671;-75
2023/10/02 02:09:25;;;;;;;2.15;1.95;;;16.80;99.90;;;;;;5083383;28;20052;-75
2023/10/02 02:12:10;;;;;;;0.82;0.82;;;16.80;99.90;;;;;;5076247;28;20044;-75
2023/10/02 02:14:51;;;;;;;0.32;0.32;;;16.80;99.90;;;;;;5081710;28;20052;-75
2023/10/02 02:17:22;;;;;;;0.75;0.47;;;16.80;99.90;;;;;;5081685;28;20402;-76
2023/10/02 02:19:48;;;;;;;1.08;0.95;;;16.80;99.90;;;;;;5072722;28;20089;-75
2023/10/02 02:22:19;;;;;;;0.57;0.57;;;16.80;99.90;;;;;;5081128;28;20048;-75
2023/10/02 02:24:46;;;;;;;0.68;0.45;;;16.70;99.90;;;;;;5074518;28;20095;-75
2023/10/02 02:27:12;;;;;;;1.08;0.98;;;16.70;99.90;;;;;;5078435;28;20120;-76
2023/10/02 02:29:38;;;;;;;0.80;0.60;;;16.70;99.90;;;;;;5083451;28;20495;-75
2023/10/02 02:32:07;;;;;;;0.20;0.20;;;16.60;99.90;;;;;;5075646;28;20059;-75
2023/10/02 02:34:33;;;;;;;0.35;0.35;;;16.60;99.90;;;;;;5081009;28;20123;-75
2023/10/02 02:36:59;;;;;;;;;;;16.50;99.90;;;;;;5083528;28;20131;-74
2023/10/02 02:39:27;;;;;;;0.40;0.40;;;16.40;99.90;;;;;;5083225;28;19974;-76
2023/10/02 02:44:46;;;;;;;0.30;0.30;;;16.30;99.90;;;;;;5083599;28;20462;-74
2023/10/02 02:47:13;;;;;;;1.48;1.38;;;16.20;99.90;;;;;;5074731;28;20501;-74
2023/10/02 02:49:58;;;;;;;0.32;0.32;;;16.20;99.90;;;;;;5077058;28;20102;-74
2023/10/02 02:52:32;;;;;;;0.43;0.43;;;16.10;99.90;;;;;;5080766;28;20106;-75
2023/10/02 02:55:03;;;;;;;0.30;0.30;;;16.10;99.90;;;;;;5086110;28;20644;-75
2023/10/02 02:57:34;;;;;;;0.43;0.43;;;16.10;99.90;;;;;;5072777;28;20048;-74
2023/10/02 03:02:53;;;;;;;0.88;0.88;;;16.00;99.90;;;;;;5075040;28;20053;-74
2023/10/02 03:05:21;;;;;;;0.20;0.20;;;15.90;99.90;;;;;;5079282;28;20540;-74
2023/10/02 03:07:56;;;;;;;0.52;0.52;;;15.80;99.90;;;;;;5075313;28;20052;-74
2023/10/02 03:10:23;;;;;;;0.40;0.40;;;15.80;99.90;;;;;;5082004;28;20059;-75
2023/10/02 03:12:50;;;;;;;0.35;0.35;;;15.80;99.90;;;;;;5080008;28;20080;-74
2023/10/02 03:15:45;;;;;;;0.80;0.80;;;15.80;99.90;;;;;;5080713;28;20398;-75
2023/10/02 03:18:22;;;;;;;0.50;0.50;;;15.80;99.90;;;;;;5075099;28;20052;-74
2023/10/02 03:20:52;;;;;;;0.43;0.43;;;15.80;99.90;;;;;;5079600;28;20048;-74
2023/10/02 03:23:18;;;;;;;1.42;1.33;;;15.90;99.90;;;;;;5080284;28;20052;-74
2023/10/02 03:25:48;;;;;;;0.28;0.28;;;15.90;99.90;;;;;;5084818;28;20045;-75
2023/10/02 03:28:27;;;;;;;0.45;0.45;;;15.90;99.90;;;;;;5081784;28;20067;-74
2023/10/02 03:30:57;;;;;;;1.23;0.70;;;15.90;99.90;;;;;;5079473;28;20056;-74
2023/10/02 03:33:26;;;;;;;0.22;0.22;;;15.90;99.90;;;;;;5079382;28;20052;-74
2023/10/02 03:36:10;;;;;;;0.63;0.63;;;15.90;99.90;;;;;;5080544;28;20123;-74
2023/10/02 03:38:44;;;;;;;0.77;0.77;;;15.90;99.90;;;;;;5083072;28;20051;-74
2023/10/02 03:41:11;;;;;;;0.30;0.30;;;15.80;99.90;;;;;;5081848;28;20052;-75
2023/10/02 03:43:43;;;;;;;0.30;0.30;;;15.90;99.90;;;;;;5082955;28;20118;-74
2023/10/02 03:46:13;;;;;;;0.30;0.30;;;15.90;99.90;;;;;;5072676;28;20091;-74
2023/10/02 03:48:40;;;;;;;0.50;0.50;;;15.90;99.90;;;;;;5072595;28;20040;-74
2023/10/02 03:51:07;;;;;;;1.05;0.60;;;15.80;99.90;;;;;;5082315;28;20059;-74
2023/10/02 03:53:34;;;;;;;0.90;0.88;;;15.90;99.90;;;;;;5083023;28;20478;-74
2023/10/02 03:58:51;;;;;;;0.60;0.60;;;15.90;99.90;;;;;;5073902;28;20052;-74
2023/10/02 04:01:30;;;;;;;1.92;1.02;;;15.90;99.90;;;;;;5081134;28;20045;-74
2023/10/02 04:06:45;;;;;;;1.25;1.15;;;15.90;99.90;;;;;;5080018;28;20049;-74
2023/10/02 04:09:21;;;;;;;0.60;0.60;;;15.90;99.90;;;;;;5079582;28;20037;-74
2023/10/02 04:11:50;;;;;;;;;;;15.90;99.90;;;;;;5072647;28;20052;-74
2023/10/02 04:14:17;;;;;;;0.40;0.40;;;15.90;99.90;;;;;;5081297;28;19935;-74
2023/10/02 04:17:09;;;;;;;1.13;1.02;;;15.90;99.90;;;;;;5079282;28;20459;-75
2023/10/02 04:19:34;;;;;;;0.43;0.43;;;15.90;99.90;;;;;;5077705;28;20064;-75
2023/10/02 04:22:06;;;;;;;0.85;0.85;;;15.90;99.90;;;;;;5078327;28;20051;-75
2023/10/02 04:24:51;;;;;;;1.40;1.30;;;15.90;99.90;;;;;;5078462;28;20048;-75
2023/10/02 04:28:08;;;;;;;1.10;0.50;;;15.90;99.90;;;;;;5077006;28;20375;-75
2023/10/02 04:32:49;;;;;;;0.80;0.80;;;15.90;99.90;;;;;;5074918;28;20483;-75
2023/10/02 04:38:07;;;;;;;1.30;0.43;;;15.90;99.90;;;;;;5078978;28;20056;-75
2023/10/02 04:40:51;;;;;;;1.55;1.00;;;16.00;99.90;;;;;;5085410;28;20522;-75
2023/10/02 04:43:23;;;;;;;0.88;0.82;;;16.00;99.90;;;;;;5071423;28;20079;-75
2023/10/02 04:46:08;;;;;;;1.05;1.05;;;16.00;99.90;;;;;;5078021;28;20059;-75
2023/10/02 04:48:42;;;;;;;1.15;1.05;;;16.10;99.90;;;;;;5075330;28;20059;-75
2023/10/02 04:51:09;;;;;;;1.25;1.00;;;16.10;99.90;;;;;;5081205;28;20189;-75
2023/10/02 04:53:36;;;;;;;0.73;0.73;;;16.20;99.90;;;;;;5082199;28;20490;-74
2023/10/02 04:58:49;;;;;;;2.38;1.58;;;16.20;99.90;;;;;;5082245;28;20055;-75
2023/10/02 05:01:29;;;;;;;0.68;0.68;;;16.20;99.90;;;;;;5080490;28;20044;-74
2023/10/02 05:04:02;;;;;;;0.60;0.60;;;16.10;99.90;;;;;;5078247;28;20055;-74
2023/10/02 05:11:52;;;;;;;0.45;0.45;;;16.10;99.90;;;;;;5081756;28;20457;-74
2023/10/02 05:15:07;;;;;;;0.60;0.60;;;16.20;99.90;;;;;;5076181;28;20044;-74
2023/10/02 05:17:17;;;;;;;0.73;0.73;;;16.00;99.90;;;;;;5075012;28;20063;-74
2023/10/02 05:20:01;;;;;;;1.10;0.85;;;16.00;99.90;;;;;;5080178;28;20400;-74
2023/10/02 05:22:30;;;;;;;1.98;1.67;;;16.00;99.90;;;;;;5080801;28;20444;-75
2023/10/02 05:24:59;;;;;;;2.60;2.35;;;15.90;99.90;;;;;;5077544;28;20525;-74
2023/10/02 05:27:30;;;;;;;0.55;0.55;;;15.90;99.90;;;;;;5081153;28;20055;-75
2023/10/02 05:30:00;;;;;;;0.63;0.63;;;15.90;99.90;;;;;;5079700;28;20044;-74
2023/10/02 05:32:31;;;;;;;0.43;0.43;;;15.80;99.90;;;;;;5080029;28;20089;-74
2023/10/02 05:35:34;;;;;;;1.33;1.27;;;15.80;99.90;;;;;;5079258;28;20487;-74
2023/10/02 05:37:54;;;;;;;0.43;0.43;;;15.80;99.90;;;;;;5069790;28;20055;-75
2023/10/02 05:43:09;;;;;;;1.35;1.25;;;15.70;99.90;;;;;;5081635;28;20101;-75
2023/10/02 05:45:39;;;;;;;0.70;0.70;;;15.60;99.90;;;;;;5081972;28;20395;-75
2023/10/02 05:48:14;;;;;;;0.30;0.30;;;15.60;99.90;;;;;;5072992;28;20045;-75
2023/10/02 05:50:52;;;;;;;1.23;0.88;;;15.60;99.90;;;;;;5084045;28;20076;-75
2023/10/02 05:53:20;;;;;;;0.82;0.82;;;15.60;99.90;;;;;;5074829;28;20049;-75
2023/10/02 05:58:41;;;;;;;0.32;0.32;;;15.60;99.90;;;;;;5084214;28;20486;-75
2023/10/02 06:01:26;;;;;;;0.88;0.88;;;15.60;99.90;;;;;;5081716;28;20044;-74
2023/10/02 06:03:58;;;;;;;1.50;1.40;;;15.70;99.90;;;;;;5081908;28;20440;-75
2023/10/02 06:06:25;;;;;;;0.40;0.40;;;15.70;99.90;;;;;;5070458;28;20081;-75
2023/10/02 06:08:52;;;;;;;1.15;1.10;;;15.80;99.90;;;;;;5084941;28;20047;-75
2023/10/02 06:11:34;;;;;;;0.68;0.68;;;15.90;99.90;;;;;;5083767;28;20044;-75
2023/10/02 06:14:10;;;;;;;1.52;1.42;;;16.00;99.90;;;;;;5085006;28;20074;-75
2023/10/02 06:16:40;;;;;;;;;;;16.00;99.90;;;;;;5074337;28;20088;-75
2023/10/02 06:19:12;;;;;;;2.58;2.35;;;16.00;99.90;;;;;;5081118;28;19932;-75
2023/10/02 06:21:45;;;;;;;1.00;1.00;;;16.00;99.90;;;;;;5081461;28;20044;-75
2023/10/02 06:24:15;;;;;;;1.13;1.05;;;16.00;99.90;;;;;;5080988;28;20049;-75
2023/10/02 06:26:57;;;;;;;0.52;0.52;;;16.00;99.90;;;;;;5068860;28;20638;-74
2023/10/02 06:29:28;;;;;;;0.60;0.60;;;15.90;99.90;;;;;;5083638;28;20048;-75
2023/10/02 06:31:58;;;;;;;0.63;0.63;;;15.90;99.90;;;;;;5077818;28;20127;-75
2023/10/02 06:34:25;;;;;;;1.45;0.40;;;15.90;99.90;;;;;;5080267;28;20059;-74
2023/10/02 06:37:02;;;;;;;0.70;0.70;;;15.90;99.90;;;;;;5083824;28;20052;-75
2023/10/02 06:39:35;;;;;;;1.85;0.55;;;15.90;99.90;;;;;;5082523;28;20104;-75
2023/10/02 06:42:04;;;;;;;1.27;1.13;;;16.00;99.90;;;;;;5072833;28;20045;-74
2023/10/02 06:44:40;;;;;;;1.75;1.65;;;16.00;99.90;;;;;;5080969;28;20074;-75
2023/10/02 06:47:11;;;;;;;0.63;0.63;;;16.00;99.90;;;;;;5073343;28;20129;-74
2023/10/02 06:49:39;;;;;;;1.38;1.30;;;16.10;99.90;;;;;;5076847;28;20045;-74
2023/10/02 06:52:18;;;;;;;1.30;1.20;;;16.10;99.90;;;;;;5080188;28;20040;-75
2023/10/02 06:54:45;;;;;;;1.85;0.57;;;16.10;99.90;;;;;;5088862;28;20071;-75
2023/10/02 06:57:16;;;;;;;4.25;1.70;;;16.20;99.90;;;;;;5071661;28;20094;-74
2023/10/02 06:59:53;;;;;;;0.77;0.77;;;16.20;99.90;;;;;;5080790;28;20045;-75
2023/10/02 07:02:27;;;;;;;0.82;0.82;;;16.30;99.90;;;;;;5071923;28;20051;-75
2023/10/02 07:04:56;;;;;;;0.95;0.90;;;16.30;99.90;;;;;;5075331;28;20060;-75
2023/10/02 07:07:30;;;;;;;0.40;0.40;;;16.30;99.90;;;;;;5072550;28;20067;-75
2023/10/02 07:10:07;;;;;;;1.38;1.27;;;16.40;99.90;;;;;;5083469;28;20063;-75
2023/10/02 07:12:40;;;;;;;1.70;1.50;;;16.50;99.90;;;;;;5073045;28;20511;-75
2023/10/02 07:15:13;;;;;;;1.77;1.13;;;16.50;99.90;;;;;;5079655;28;20155;-74
2023/10/02 07:17:49;;;;;;;3.03;1.70;;;16.60;99.90;;;;;;5083200;28;20048;-75
2023/10/02 07:20:17;;;;;;;0.77;0.77;;;16.70;99.90;;;;;;5082640;28;20040;-75
2023/10/02 07:22:44;;;;;;;0.95;0.95;;;16.80;99.90;;;;;;5080029;28;20289;-75
2023/10/02 07:25:09;;;;;;;;;;;16.80;99.90;;;;;;5085854;28;20090;-74
2023/10/02 07:27:37;;;;;;;1.10;1.05;;;16.90;99.90;;;;;;5074402;28;19967;-75
2023/10/02 07:30:09;;;;;;;2.10;2.00;;;17.00;99.90;;;;;;5082844;28;20458;-75
2023/10/02 07:32:35;;;;;;;0.47;0.47;;;17.10;99.90;;;;;;5079445;28;20093;-75
2023/10/02 07:37:44;;;;;;;0.40;0.40;;;17.20;99.90;;;;;;5079969;28;20018;-75
2023/10/02 07:40:20;;;;;;;2.63;1.70;;;17.40;99.90;;;;;;5086179;28;20374;-75
2023/10/02 07:42:48;;;;;;;;;;;17.50;99.90;;;;;;5081338;28;20052;-74
2023/10/02 07:45:26;;;;;;;0.35;0.35;;;17.60;99.90;;;;;;5056308;28;19967;-75
2023/10/02 07:48:25;;;;;;;0.90;0.90;;;17.70;99.90;;;;;;5070695;28;20063;-75
2023/10/02 07:50:44;;;;;;;1.15;1.10;;;17.70;99.90;;;;;;5076619;28;20075;-75
2023/10/02 07:53:10;;;;;;;0.88;0.77;;;17.80;99.90;;;;;;5082141;28;20043;-75
2023/10/02 07:55:42;;;;;;;1.80;0.95;;;17.90;99.90;;;;;;5083522;28;20060;-75
2023/10/02 07:58:09;;;;;;;1.83;1.67;;;17.90;99.90;;;;;;5078325;28;20110;-75
2023/10/02 08:00:41;;;;;;;0.93;0.93;;;18.00;99.90;;;;;;5082239;28;20119;-74
2023/10/02 08:05:56;;;;;;;1.57;1.37;;;18.20;99.90;;;;;;5082312;28;20382;-75
2023/10/02 08:08:25;;;;;;;1.75;1.65;;;18.20;99.90;;;;;;5057024;28;20282;-74
2023/10/02 08:10:52;;;;;;;1.42;1.35;;;18.30;99.90;;;;;;5081555;28;20052;-75
2023/10/02 08:13:35;;;;;;;2.20;1.75;;;18.30;99.90;;;;;;5078987;28;20667;-76
2023/10/02 08:16:07;;;;;;;0.57;0.57;;;18.50;99.90;;;;;;5078430;28;20132;-74
2023/10/02 08:18:36;;;;;;;1.00;0.95;;;18.50;99.90;;;;;;5070151;28;20048;-75
2023/10/02 08:21:04;;;;;;;2.13;1.45;;;18.50;99.90;;;;;;5078677;28;20048;-76
2023/10/02 08:23:29;;;;;;;0.57;0.57;;;18.60;99.90;;;;;;5080053;28;20049;-75
2023/10/02 08:26:03;;;;;;;1.35;1.30;;;18.60;99.90;;;;;;5083002;28;20052;-75
2023/10/02 08:28:36;;;;;;;2.67;2.42;;;18.70;99.90;;;;;;5071130;28;20757;-75
2023/10/02 08:31:02;;;;;;;0.65;0.65;;;18.80;99.90;;;;;;5081270;28;20117;-74
2023/10/02 08:33:31;;;;;;;1.95;1.25;;;18.90;99.90;;;;;;5077604;28;20052;-76
2023/10/02 08:35:58;;;;;;;2.05;1.95;;;19.00;99.90;;;;;;5073439;28;20133;-75
2023/10/02 08:38:26;;;;;;;1.15;1.05;;;19.00;99.90;;;;;;5081275;28;20048;-75
2023/10/02 08:40:59;;;;;;;4.88;1.98;;;19.10;99.90;;;;;;5086124;28;20109;-75
2023/10/02 08:43:29;;;;;;;6.32;2.30;;;19.10;99.90;;;;;;5081459;28;20040;-75
2023/10/02 08:45:58;;;;;;;1.50;1.42;;;19.20;99.90;;;;;;5073862;28;20388;-75
2023/10/02 08:48:25;;;;;;;2.83;1.60;;;19.30;99.90;;;;;;5076436;28;20048;-75
2023/10/02 08:50:57;;;;;;;1.92;1.38;;;19.40;99.90;;;;;;5079040;28;20106;-75
2023/10/02 08:53:23;;;;;;;1.63;1.15;;;19.60;99.90;;;;;;5074115;28;20380;-75
2023/10/02 08:56:21;;;;;;;1.75;1.27;;;19.60;99.90;;;;;;5069042;28;20098;-74
2023/10/02 08:58:47;;;;;;;2.05;1.90;;;19.50;99.90;;;;;;5072201;28;20132;-75
2023/10/02 09:01:20;;;;;;;3.22;2.00;;;19.40;99.90;;;;;;5069794;28;20487;-75
2023/10/02 09:06:36;;;;;;;1.95;1.77;;;19.30;99.90;;;;;;5072057;28;20048;-75
2023/10/02 09:09:13;;;;;;;0.95;0.95;;;19.30;99.90;;;;;;5077976;28;20066;-76
2023/10/02 09:11:39;;;;;;;1.92;1.48;;;19.40;99.90;;;;;;5082230;28;20047;-76
2023/10/02 09:16:47;;;;;;;2.60;1.27;;;19.50;99.90;;;;;;5085649;28;20044;-76
2023/10/02 09:19:30;;;;;;;1.55;1.45;;;19.70;99.90;;;;;;5084706;28;20040;-75
2023/10/02 09:22:06;;;;;;;2.17;1.23;;;19.80;99.90;;;;;;5082729;28;20720;-75
2023/10/02 09:24:36;;;;;;;3.55;2.08;;;19.90;99.90;;;;;;5081626;28;20475;-75
2023/10/02 09:27:25;;;;;;;3.83;3.05;;;20.10;99.90;;;;;;5081188;28;20414;-76
2023/10/02 09:32:49;;;;;;;3.17;2.47;;;20.10;99.90;;;;;;5062714;28;20056;-75
2023/10/02 09:35:40;;;;;;;2.50;2.30;;;20.10;99.90;;;;;;5085464;28;20052;-75
2023/10/02 09:38:06;;;;;;;2.92;1.83;;;20.10;99.90;;;;;;5076282;28;20080;-75
2023/10/02 09:43:32;;;;;;;1.05;1.02;;;20.20;99.90;;;;;;5081542;28;20521;-75
2023/10/02 09:46:06;;;;;;;4.07;1.67;;;20.10;99.90;;;;;;5076490;28;20398;-75
2023/10/02 09:51:26;;;;;;;4.03;3.35;;;20.10;99.90;;;;;;5082355;28;20083;-75
2023/10/02 09:54:17;;;;;;;3.83;1.70;;;20.00;99.90;;;;;;5084662;28;20048;-75
2023/10/02 09:57:12;;;;;;;3.10;1.30;;;20.00;99.90;;;;;;5078344;28;20052;-76
2023/10/02 09:59:48;;;;;;;1.05;1.05;;;20.20;99.90;;;;;;5077086;28;20040;-76
2023/10/02 10:08:27;;;;;;;2.22;2.03;;;20.40;99.90;;;;;;5074968;28;20044;-76
2023/10/02 10:11:10;;;;;;;1.98;1.88;;;20.40;99.90;;;;;;5076363;28;20137;-75
2023/10/02 10:13:37;;;;;;;2.75;1.52;;;20.40;99.90;;;;;;5081155;28;20117;-76
2023/10/02 10:16:23;;;;;;;1.08;0.98;;;20.30;99.90;;;;;;5081673;28;20128;-75
2023/10/02 10:21:58;;;;;;;1.23;0.98;;;20.50;99.90;;;;;;5072158;28;20563;-75
2023/10/02 10:24:57;;;;;;;3.38;2.75;;;20.70;99.90;;;;;;5079578;28;20045;-75
2023/10/02 10:27:38;;;;;;;1.17;1.15;;;20.90;99.90;;;;;;5081493;28;20047;-75
2023/10/02 10:30:28;;;;;;;1.45;1.33;;;21.10;99.90;;;;;;5081669;28;20045;-75
2023/10/02 10:33:15;;;;;;;3.03;2.50;;;21.10;99.90;;;;;;5076445;28;20045;-76
2023/10/02 10:35:49;;;;;;;2.83;1.42;;;21.30;99.90;;;;;;5082708;28;20048;-75
2023/10/02 10:41:09;;;;;;;4.47;1.85;;;21.70;99.90;;;;;;5086481;28;20052;-75
2023/10/02 10:43:55;;;;;;;0.73;0.73;;;21.90;99.90;;;;;;5080880;28;20051;-75
2023/10/02 10:46:29;;;;;;;0.57;0.57;;;21.90;99.90;;;;;;5079191;28;20041;-76
2023/10/02 10:49:09;;;;;;;1.95;1.50;;;22.10;99.90;;;;;;5082394;28;20048;-75
2023/10/02 10:51:37;;;;;;;1.25;1.20;;;22.20;99.90;;;;;;5084699;28;20376;-75
2023/10/02 10:54:19;;;;;;;3.72;3.42;;;22.30;99.90;;;;;;5082599;28;20044;-76
2023/10/02 10:56:56;;;;;;;2.10;1.90;;;22.20;99.90;;;;;;5081888;28;20056;-76
2023/10/02 10:59:32;;;;;;;1.35;1.20;;;22.20;99.90;;;;;;5080572;28;20387;-76
2023/10/02 11:02:16;;;;;;;;;;;22.20;99.90;;;;;;5089497;28;20052;-76
2023/10/02 11:04:50;;;;;;;2.75;1.48;;;22.10;99.90;;;;;;5077429;28;19924;-75
2023/10/02 11:07:19;;;;;;;3.30;2.42;;;22.00;99.90;;;;;;5088984;28;20052;-75
2023/10/02 11:12:56;;;;;;;0.68;0.68;;;21.90;99.90;;;;;;5073774;28;20503;-76
2023/10/02 11:16:07;;;;;;;4.85;2.58;;;21.90;99.90;;;;;;5078953;28;20113;-76
2023/10/02 11:18:19;;;;;;;1.23;1.13;;;21.90;99.90;;;;;;5070758;28;20062;-75
2023/10/02 11:20:57;;;;;;;2.15;1.95;;;21.90;99.90;;;;;;5082972;28;20055;-75
2023/10/02 11:23:40;;;;;;;1.90;1.08;;;21.80;99.90;;;;;;5081737;28;20048;-76
2023/10/02 11:26:21;;;;;;;1.63;1.40;;;21.90;99.90;;;;;;5072663;28;20082;-76
2023/10/02 11:28:51;;;;;;;2.63;1.98;;;21.90;99.90;;;;;;5071749;28;20037;-75
2023/10/02 11:31:32;;;;;;;1.80;1.70;;;22.00;99.90;;;;;;5079191;28;20439;-75
2023/10/02 11:34:00;;;;;;;0.75;0.75;;;22.10;99.90;;;;;;5073143;28;20052;-75
2023/10/02 11:36:28;;;;;;;1.13;1.13;;;22.20;99.90;;;;;;5078867;28;20051;-75
2023/10/02 11:38:55;;;;;;;1.80;1.70;;;21.70;99.90;;;;;;5081192;28;20082;-75
2023/10/02 11:41:21;;;;;;;5.95;2.28;;;22.30;99.90;;;;;;5084405;28;20589;-76
2023/10/02 11:43:48;;;;;;;2.42;2.33;;;22.20;99.90;;;;;;5080862;28;20049;-75
2023/10/02 11:46:14;;;;;;;1.23;1.17;;;22.30;99.90;;;;;;5078251;28;20491;-76
2023/10/02 11:48:49;;;;;;;4.57;1.25;;;22.40;99.90;;;;;;5078572;28;20051;-76
2023/10/02 11:51:15;;;;;;;1.38;1.27;;;22.60;99.90;;;;;;5082429;28;20054;-76
2023/10/02 11:53:40;;;;;;;4.53;2.08;;;22.70;99.90;;;;;;5082360;28;20040;-76
2023/10/02 11:56:06;;;;;;;0.45;0.45;;;22.80;99.90;;;;;;5082004;28;20127;-76
2023/10/02 11:58:32;;;;;;;3.13;0.90;;;22.90;99.90;;;;;;5082052;28;20451;-76
2023/10/02 12:01:02;;;;;;;0.55;0.55;;;23.00;99.90;;;;;;5081254;28;20114;-76
2023/10/02 12:03:27;;;;;;;1.98;1.70;;;22.90;99.90;;;;;;5078909;28;20483;-76
2023/10/02 12:05:54;;;;;;;0.70;0.70;;;22.90;99.90;;;;;;5078615;28;20059;-75
2023/10/02 12:08:22;;;;;;;1.13;1.13;;;22.90;99.90;;;;;;5073475;28;20902;-76
2023/10/02 12:10:54;;;;;;;0.82;0.82;;;22.90;99.90;;;;;;5081724;28;20059;-76
2023/10/02 12:13:20;;;;;;;3.45;2.35;;;22.90;99.90;;;;;;5079482;28;20075;-76
2023/10/02 12:15:47;;;;;;;1.00;0.95;;;22.90;99.90;;;;;;5074908;28;20060;-76
2023/10/02 12:18:12;;;;;;;2.50;1.95;;;23.00;99.90;;;;;;5080275;28;20052;-75
2023/10/02 12:20:42;;;;;;;0.98;0.95;;;23.00;99.90;;;;;;5081586;28;20396;-75
2023/10/02 12:23:09;;;;;;;0.95;0.95;;;22.80;99.90;;;;;;5080704;28;20060;-76
2023/10/02 12:25:36;;;;;;;0.85;0.55;;;22.80;99.90;;;;;;5084338;28;20806;-75
2023/10/02 12:28:02;;;;;;;1.55;1.45;;;22.80;99.90;;;;;;5076601;28;20048;-75
2023/10/02 12:30:33;;;;;;;0.60;0.60;;;22.80;99.90;;;;;;5080473;28;20051;-75
2023/10/02 12:33:01;;;;;;;1.80;1.20;;;22.70;99.90;;;;;;5078927;28;20055;-76
2023/10/02 12:35:31;;;;;;;1.48;1.35;;;22.70;99.90;;;;;;5079009;28;20055;-76
2023/10/02 12:37:58;;;;;;;3.00;2.53;;;22.60;99.90;;;;;;5081385;28;20118;-76
2023/10/02 12:40:31;;;;;;;2.00;1.58;;;22.70;99.90;;;;;;5081603;28;20127;-75
2023/10/02 12:43:00;;;;;;;1.17;0.57;;;22.60;99.90;;;;;;5069810;28;20044;-76
2023/10/02 12:45:33;;;;;;;1.17;0.98;;;22.70;99.90;;;;;;5073043;28;20051;-75
2023/10/02 12:47:59;;;;;;;1.75;1.50;;;22.70;99.90;;;;;;5072987;28;20075;-75
2023/10/02 12:50:24;;;;;;;0.77;0.77;;;22.80;99.90;;;;;;5081040;28;20133;-76
2023/10/02 12:52:50;;;;;;;1.98;1.77;;;22.80;99.90;;;;;;5078678;28;20058;-75
2023/10/02 12:55:17;;;;;;;1.00;0.98;;;22.90;99.90;;;;;;5085343;28;20487;-75
2023/10/02 12:57:42;;;;;;;3.15;2.78;;;22.80;99.90;;;;;;5078003;28;20487;-75
2023/10/02 13:00:16;;;;;;;3.60;0.75;;;22.70;99.90;;;;;;5081732;28;20055;-77
2023/10/02 13:02:42;;;;;;;3.03;2.75;;;22.70;99.90;;;;;;5081553;28;20051;-77
2023/10/02 13:05:09;;;;;;;2.25;2.05;;;22.70;99.90;;;;;;5079867;28;20390;-75
2023/10/02 13:07:35;;;;;;;1.67;1.58;;;22.60;99.90;;;;;;5078296;28;20052;-75
2023/10/02 13:10:02;;;;;;;1.00;0.90;;;22.60;99.90;;;;;;5078158;28;20036;-75
2023/10/02 13:12:28;;;;;;;1.35;1.05;;;22.70;99.90;;;;;;5080261;28;20498;-75
2023/10/02 13:14:54;;;;;;;8.50;1.95;;;22.70;99.90;;;;;;5079685;28;20082;-75
2023/10/02 13:17:20;;;;;;;2.20;1.00;;;22.70;99.90;;;;;;5078925;28;20047;-75
2023/10/02 13:19:46;;;;;;;0.65;0.65;;;22.70;99.90;;;;;;5077805;28;20511;-75
2023/10/02 13:22:11;;;;;;;1.48;1.38;;;22.70;99.90;;;;;;5086689;28;20185;-75
2023/10/02 13:24:37;;;;;;;0.60;0.60;;;22.80;99.90;;;;;;5080130;28;20067;-75
2023/10/02 13:27:03;;;;;;;2.97;1.70;;;22.90;99.90;;;;;;5073097;28;20044;-75
2023/10/02 13:29:29;;;;;;;1.00;0.98;;;22.90;99.90;;;;;;5077961;28;20052;-75
2023/10/02 13:31:55;;;;;;;7.95;2.03;;;23.00;99.90;;;;;;5074845;28;20395;-75
2023/10/02 13:34:21;;;;;;;1.27;1.23;;;22.80;99.90;;;;;;5078469;28;20049;-76
2023/10/02 13:36:46;;;;;;;5.30;1.13;;;22.80;99.90;;;;;;5083218;28;20056;-75
2023/10/02 13:39:13;;;;;;;0.68;0.65;;;22.70;99.90;;;;;;5080543;28;20044;-75
2023/10/02 13:41:39;;;;;;;0.95;0.95;;;22.70;99.90;;;;;;5070259;28;20056;-75
2023/10/02 13:44:07;;;;;;;1.55;1.45;;;22.70;99.90;;;;;;5080018;28;20528;-75
2023/10/02 13:46:38;;;;;;;1.20;0.73;;;22.60;99.90;;;;;;5074184;28;20052;-75
2023/10/02 13:49:05;;;;;;;1.40;1.27;;;22.60;99.90;;;;;;5071378;28;20044;-75
2023/10/02 13:51:31;;;;;;;0.65;0.65;;;22.70;99.90;;;;;;5080935;28;20055;-75
2023/10/02 13:53:57;;;;;;;1.55;1.40;;;22.70;99.90;;;;;;5080320;28;20048;-75
2023/10/02 13:56:32;;;;;;;2.97;1.42;;;22.80;99.90;;;;;;5084361;28;20044;-75
2023/10/02 13:58:59;;;;;;;0.47;0.47;;;22.80;99.90;;;;;;5083176;28;20394;-75
2023/10/02 14:01:25;;;;;;;0.45;0.45;;;22.70;99.90;;;;;;5076725;28;20085;-75
2023/10/02 14:03:55;;;;;;;1.10;0.80;;;22.70;99.90;;;;;;5084488;28;20047;-75
2023/10/02 14:06:26;;;;;;;1.52;1.42;;;22.70;99.90;;;;;;5060082;28;20526;-75
2023/10/02 14:08:52;;;;;;;0.80;0.80;;;22.60;99.90;;;;;;5082958;28;20657;-75
2023/10/02 14:11:23;;;;;;;1.90;0.85;;;22.60;99.90;;;;;;5081530;28;20052;-76
2023/10/02 14:13:49;;;;;;;4.07;2.17;;;22.50;99.90;;;;;;5080895;28;20049;-76
2023/10/02 14:16:19;;;;;;;1.52;1.42;;;22.50;99.90;;;;;;5082706;28;20063;-76
2023/10/02 14:18:48;;;;;;;0.70;0.70;;;22.50;99.90;;;;;;5084150;28;20777;-75
2023/10/02 14:21:14;;;;;;;1.23;1.20;;;22.50;99.90;;;;;;5083841;28;20048;-76
2023/10/02 14:23:43;;;;;;;0.63;0.63;;;22.50;99.90;;;;;;5081625;28;20044;-76